Vistas de Rio Grande I, Puerto Rico
Current Conditions -  °F | °C
As of 10:56 AM on Saturday 27 Dec 2014 (Local Time) from TJSJ Reporting Station
Scattered Clouds Scattered Clouds  
Wind Chill: 28°   Ceiling: Unl
Heat Index: 29°   Visibility: 10mi
Dew Point: 20°   Wind: 14mph
Humidity: 62%   Direction: 70°ENE
Pressure: 30.12"   Gusts: NA
Location:  18.3817°N, 65.8302°W
Report Text: TJSJ 271456Z 07012KT 10SM SCT047 SCT065 28/20 A3012 RMK AO2 SLP198 T02780200 50010
Loading
Personal Weather Stations






























Interactive Weather Map New forecast layout! Learn more

10-Day Weather Forecast

Advertisements
Track Severe Weather on mobile